Skip to content
You are here: Gozo Weather
Gozo Weather Station for the very latest live weather conditions from Gozo and Malta
 
 TIME   TEMPERATURE   WINDSPEED   DIRECTION   HUMIDITY   BAROMETER   RAINFALL 
1:15 11.7°C (53.1°F) 11.1 kmh (6.9 mph) WSW 49% 1009.0hPa (29.80 inHg) 0.0mm (0.00 in.)
12:15 11.6°C (52.9 °F) 27.8 kmh (17.3 mph) N 50% 1010.0hPa (29.83 inHg) 0.0mm (0.00 in.)
11:09 11.4°C (52.5 °F) 29.6 kmh (18.4 mph) NW 50% 1010.0hPa (29.83 inHg) 0.0mm (0.00 in.)
10:09 11.2°C (52.2 °F) 29.6 kmh (18.4 mph) N 51% 1011.0hPa (29.85 inHg) 0.0mm (0.00 in.)
9:09 10.8°C (51.4 °F) 25.9 kmh (16.1 mph) NNW 53% 1010.0hPa (29.83 inHg) 0.0mm (0.00 in.)
8:09 10.4°C (50.7 °F) 31.5 kmh (19.6 mph) NNW 53% 1009.0hPa (29.80 inHg) 0.0mm (0.00 in.)
7:09 9.6°C (49.3 °F) 35.2 kmh (21.9 mph) N 51% 1008.0hPa (29.77 inHg) 0.0mm (0.00 in.)
6:09 9.7°C (49.5 °F) 27.8 kmh (17.3 mph) NW 52% 1008.0hPa (29.77 inHg) 0.0mm (0.00 in.)
5:09 9.5°C (49.1 °F) 35.2 kmh (21.9 mph) NNW 51% 1007.0hPa (29.74 inHg) 0.0mm (0.00 in.)
4:09 9.6°C (49.3 °F) 27.8 kmh (17.3 mph) N 51% 1008.0hPa (29.77 inHg) 0.0mm (0.00 in.)
3:09 9.5°C (49.1 °F) 35.2 kmh (21.9 mph) NNW 50% 1008.0hPa (29.77 inHg) 0.0mm (0.00 in.)
2:09 9.4°C (48.9 °F) 33.3 kmh (20.7 mph) N 50% 1007.0hPa (29.74 inHg) 0.0mm (0.00 in.)
1:09 9.3°C (48.7 °F) 35.2 kmh (21.9 mph) NNW 51% 1007.0hPa (29.74 inHg) 0.0mm (0.00 in.)
12:09 9.2°C (48.6 °F) 29.6 kmh (18.4 mph) WNW 53% 1007.0hPa (29.74 inHg) 0.0mm (0.00 in.)
11:09 9.0°C (48.2 °F) 44.4 kmh (27.6 mph) NNW 58% 1007.0hPa (29.74 inHg) 0.0mm (0.00 in.)
10:09 8.6°C (47.5 °F) 38.9 kmh (24.2 mph) NW 58% 1007.0hPa (29.74 inHg) 0.0mm (0.00 in.)
9:09 8.4°C (47.1 °F) 35.2 kmh (21.9 mph) NNW 58% 1007.0hPa (29.74 inHg) 0.0mm (0.00 in.)
8:09 8.4°C (47.1 °F) 38.9 kmh (24.2 mph) NNW 57% 1008.0hPa (29.77 inHg) 0.0mm (0.00 in.)
7:09 8.4°C (47.1 °F) 37.0 kmh (23.0 mph) NNW 54% 1007.0hPa (29.74 inHg) 0.0mm (0.00 in.)
6:09 9.7°C (49.5 °F) 44.4 kmh (27.6 mph) NNW 55% 1007.0hPa (29.74 inHg) 0.0mm (0.00 in.)
5:09 10.3°C (50.5 °F) 42.6 kmh (26.5 mph) W 57% 1007.0hPa (29.74 inHg) 0.0mm (0.00 in.)
4:09 10.6°C (51.1 °F) 20.4 kmh (12.7 mph) NNW 66% 1007.0hPa (29.74 inHg) 0.0mm (0.00 in.)
3:09 10.8°C (51.4 °F) 29.6 kmh (18.4 mph) NNW 77% 1007.0hPa (29.74 inHg) 0.0mm (0.00 in.)
2:09 11.0°C (51.8 °F) 31.5 kmh (19.6 mph) NNW 84% 1007.0hPa (29.74 inHg) 0.0mm (0.00 in.)

You need the latest version of Flash Player to view some of our content.


Why not download and install the latest version now?
It will only take you a moment and will ensure that you can view all the latest flash designed websites.

Translate this page

Animated Satellite

Click per aprire http://www.gozo.ws/Animation.php
copyright 2015 EUMETSAT

European Lightning Activity


Please click image for full size

Sponsored Links